createdAt,value
2023-02-20T00:01:51.323Z,101869.97
2023-02-20T00:04:52.899Z,101855.03
2023-02-20T00:07:54.423Z,101854.16
2023-02-20T00:10:55.979Z,101841.81
2023-02-20T00:13:57.514Z,101840.94
2023-02-20T00:16:59.090Z,101843.56
2023-02-20T00:20:01.278Z,101831.25
2023-02-20T00:23:02.870Z,101827.72
2023-02-20T00:26:04.544Z,101833.88
2023-02-20T00:29:06.096Z,101825.09
2023-02-20T00:32:07.930Z,101821.59
2023-02-20T00:35:11.392Z,101824.16
2023-02-20T00:38:13.230Z,101809.19
2023-02-20T00:41:15.829Z,101788.16
2023-02-20T00:44:17.801Z,101789.00
2023-02-20T00:47:19.425Z,101793.41
2023-02-20T00:50:21.039Z,101784.56
2023-02-20T00:53:22.713Z,101768.75
2023-02-20T00:56:24.237Z,101771.44
2023-02-20T00:59:25.767Z,101760.88
2023-02-20T01:02:27.881Z,101752.97
2023-02-20T01:05:29.481Z,101741.53
2023-02-20T01:08:31.066Z,101745.91
2023-02-20T01:11:32.705Z,101751.13
2023-02-20T01:14:34.616Z,101744.97
2023-02-20T01:17:36.171Z,101744.97
2023-02-20T01:20:37.754Z,101732.63
2023-02-20T01:23:39.339Z,101722.91
2023-02-20T01:26:42.400Z,101727.31
2023-02-20T01:29:43.992Z,101713.22
2023-02-20T01:32:45.542Z,101711.41
2023-02-20T01:35:47.066Z,101705.16
2023-02-20T01:38:48.643Z,101692.84
2023-02-20T01:41:54.012Z,101688.44
2023-02-20T01:44:55.725Z,101678.75
2023-02-20T01:47:58.313Z,101666.38
2023-02-20T01:51:00.655Z,101668.94
2023-02-20T01:54:03.608Z,101681.25
2023-02-20T01:57:08.959Z,101679.41
2023-02-20T02:00:14.575Z,101665.31
2023-02-20T02:03:19.563Z,101658.22
2023-02-20T02:06:21.636Z,101641.44
2023-02-20T02:09:47.695Z,101622.06
2023-02-20T02:12:53.279Z,101611.50
2023-02-20T02:16:07.163Z,101615.88
2023-02-20T02:19:11.848Z,101609.66
2023-02-20T02:22:34.760Z,101607.03
2023-02-20T02:25:56.765Z,101582.38
2023-02-20T02:29:10.555Z,101570.94
2023-02-20T02:32:49.637Z,101563.88
2023-02-20T02:36:10.032Z,101533.97
2023-02-20T02:39:48.438Z,101501.31
2023-02-20T02:42:52.445Z,101507.50
2023-02-20T02:45:56.415Z,101514.47
2023-02-20T02:49:17.627Z,101517.06
2023-02-20T02:52:48.508Z,101519.66
2023-02-20T02:55:50.074Z,101518.69
2023-02-20T02:58:54.880Z,101541.47
2023-02-20T03:02:01.789Z,101506.19
2023-02-20T03:05:08.249Z,101527.22
2023-02-20T03:08:22.431Z,101536.88
2023-02-20T03:11:27.734Z,101513.84
2023-02-20T03:15:31.225Z,101516.41
2023-02-20T03:18:39.486Z,101500.56
2023-02-20T03:21:45.770Z,101519.03
2023-02-20T03:24:57.248Z,101493.41
2023-02-20T03:28:13.980Z,101512.72
2023-02-20T03:31:19.003Z,101497.72
2023-02-20T03:34:44.971Z,101496.81
2023-02-20T03:38:07.162Z,101486.25
2023-02-20T03:41:31.995Z,101464.25
2023-02-20T03:44:34.358Z,101460.81
2023-02-20T03:47:39.533Z,101459.84
2023-02-20T03:50:41.766Z,101478.34
2023-02-20T03:53:45.885Z,101480.09
2023-02-20T03:56:54.717Z,101474.75
2023-02-20T04:00:08.151Z,101471.22
2023-02-20T04:03:20.949Z,101474.75
2023-02-20T04:06:25.632Z,101462.41
2023-02-20T04:09:30.974Z,101468.56
2023-02-20T04:12:41.136Z,101467.72
2023-02-20T04:15:43.928Z,101454.50
2023-02-20T04:18:45.747Z,101458.00
2023-02-20T04:21:54.357Z,101464.16
2023-02-20T04:25:02.856Z,101464.09
2023-02-20T04:28:05.813Z,101479.94
2023-02-20T04:31:07.751Z,101473.75
2023-02-20T04:34:09.346Z,101458.75
2023-02-20T04:37:14.114Z,101466.63
2023-02-20T04:40:20.745Z,101456.94
2023-02-20T04:43:22.272Z,101469.16
2023-02-20T04:46:23.842Z,101460.31
2023-02-20T04:49:25.565Z,101440.94
2023-02-20T04:52:27.216Z,101428.56
2023-02-20T04:55:28.980Z,101426.84
2023-02-20T04:58:30.588Z,101424.19
2023-02-20T05:01:32.341Z,101414.50
2023-02-20T05:04:35.500Z,101412.72
2023-02-20T05:07:37.067Z,101409.13
2023-02-20T05:10:38.692Z,101396.78
2023-02-20T05:13:40.191Z,101410.88
2023-02-20T05:16:42.667Z,101401.19
2023-02-20T05:19:44.300Z,101413.44
2023-02-20T05:22:47.153Z,101412.53
2023-02-20T05:25:49.059Z,101407.25
2023-02-20T05:28:50.600Z,101405.41
2023-02-20T05:31:52.250Z,101400.63
2023-02-20T05:34:54.475Z,101402.72
2023-02-20T05:37:56.060Z,101399.28
2023-02-20T05:40:57.634Z,101405.63
2023-02-20T05:43:59.999Z,101400.44
2023-02-20T05:47:02.353Z,101399.66
2023-02-20T05:50:04.639Z,101391.66
2023-02-20T05:53:06.626Z,101388.13
2023-02-20T05:56:08.141Z,101376.66
2023-02-20T05:59:09.903Z,101384.59
2023-02-20T06:02:11.454Z,101369.63
2023-02-20T06:05:13.005Z,101381.16
2023-02-20T06:08:14.574Z,101381.16
2023-02-20T06:11:16.769Z,101387.31
2023-02-20T06:14:19.271Z,101388.13
2023-02-20T06:17:21.044Z,101376.66
2023-02-20T06:20:22.724Z,101379.22
2023-02-20T06:23:24.322Z,101385.38
2023-02-20T06:26:25.925Z,101375.72
2023-02-20T06:29:29.049Z,101372.25
2023-02-20T06:32:30.606Z,101359.84
2023-02-20T06:35:32.225Z,101355.50
2023-02-20T06:38:33.769Z,101351.09
2023-02-20T06:41:35.399Z,101354.56
2023-02-20T06:44:36.936Z,101348.38
2023-02-20T06:47:38.521Z,101340.44
2023-02-20T06:50:41.018Z,101342.19
2023-02-20T06:53:42.638Z,101343.88
2023-02-20T06:56:44.245Z,101321.03
2023-02-20T06:59:47.915Z,101335.06
2023-02-20T07:02:49.460Z,101336.75
2023-02-20T07:05:51.078Z,101325.25
2023-02-20T07:08:52.834Z,101333.09
2023-02-20T07:11:55.350Z,101332.28
2023-02-20T07:14:56.890Z,101347.16
2023-02-20T07:17:58.432Z,101330.34
2023-02-20T07:21:00.062Z,101352.28
2023-02-20T07:24:01.645Z,101361.97
2023-02-20T07:27:03.297Z,101360.19
2023-02-20T07:30:05.154Z,101360.06
2023-02-20T07:33:07.203Z,101357.13
2023-02-20T07:36:12.667Z,101367.50
2023-02-20T07:39:14.476Z,101365.72
2023-02-20T07:42:17.665Z,101368.28
2023-02-20T07:45:20.371Z,101375.28
2023-02-20T07:48:22.078Z,101362.03
2023-02-20T07:51:23.690Z,101376.91
2023-02-20T07:54:27.139Z,101357.44
2023-02-20T07:57:30.206Z,101356.47
2023-02-20T08:00:31.921Z,101350.25
2023-02-20T08:03:33.528Z,101348.44
2023-02-20T08:06:35.256Z,101331.56
2023-02-20T08:09:36.763Z,101340.31
2023-02-20T08:12:38.395Z,101341.19
2023-02-20T08:15:41.570Z,101346.03
2023-02-20T08:18:43.148Z,101329.22
2023-02-20T08:21:44.810Z,101340.66
2023-02-20T08:24:46.333Z,101318.63
2023-02-20T08:27:49.837Z,101317.78
2023-02-20T08:30:51.559Z,101318.63
2023-02-20T08:33:53.139Z,101320.34
2023-02-20T08:36:54.683Z,101313.28
2023-02-20T08:39:56.334Z,101311.50
2023-02-20T08:42:58.032Z,101310.56
2023-02-20T08:45:59.798Z,101317.59
2023-02-20T08:49:02.409Z,101321.88
2023-02-20T08:52:05.811Z,101327.09
2023-02-20T08:55:07.556Z,101308.50
2023-02-20T08:58:09.348Z,101314.59
2023-02-20T09:01:11.054Z,101310.16
2023-02-20T09:04:12.700Z,101315.31
2023-02-20T09:07:14.507Z,101323.13
2023-02-20T09:10:19.570Z,101305.38
2023-02-20T09:13:21.199Z,101320.25
2023-02-20T09:16:24.374Z,101310.44
2023-02-20T09:19:26.040Z,101300.69
2023-02-20T09:22:27.919Z,101297.03
2023-02-20T09:25:29.485Z,101303.97
2023-02-20T09:28:32.082Z,101299.38
2023-02-20T09:31:33.741Z,101311.72
2023-02-20T09:34:35.374Z,101309.84
2023-02-20T09:37:36.896Z,101319.44
2023-02-20T09:40:38.567Z,101307.84
2023-02-20T09:43:51.368Z,101301.56
2023-02-20T09:46:56.728Z,101294.38
2023-02-20T09:50:02.796Z,101285.38
2023-02-20T09:53:15.852Z,101275.66
2023-02-20T09:56:21.648Z,101272.28
2023-02-20T09:59:27.156Z,101283.66
2023-02-20T10:02:34.746Z,101288.09
2023-02-20T10:05:36.910Z,101284.66
2023-02-20T10:08:38.484Z,101300.56
2023-02-20T10:12:03.236Z,101286.34
2023-02-20T10:15:38.026Z,101277.50
2023-02-20T10:18:39.531Z,101293.41
2023-02-20T10:21:55.919Z,101280.00
2023-02-20T10:25:08.298Z,101274.69
2023-02-20T10:28:16.177Z,101266.59
2023-02-20T10:31:36.378Z,101272.59
2023-02-20T10:34:59.013Z,101283.94
2023-02-20T10:38:07.613Z,101277.69
2023-02-20T10:41:25.459Z,101265.28
2023-02-20T10:44:49.957Z,101273.97
2023-02-20T10:47:59.083Z,101279.19
2023-02-20T10:51:06.371Z,101272.88
2023-02-20T10:54:14.208Z,101281.59
2023-02-20T10:57:22.482Z,101275.38
2023-02-20T11:00:55.614Z,101263.81
2023-02-20T11:04:06.782Z,101280.59
2023-02-20T11:07:15.901Z,101299.09
2023-02-20T11:10:17.748Z,101305.19
2023-02-20T11:13:23.868Z,101296.25
2023-02-20T11:16:35.838Z,101282.63
2023-02-20T11:19:46.341Z,101307.13
2023-02-20T11:22:50.183Z,101291.06
2023-02-20T11:25:51.887Z,101299.78
2023-02-20T11:29:06.791Z,101298.78
2023-02-20T11:32:26.784Z,101291.59
2023-02-20T11:35:33.370Z,101281.84
2023-02-20T11:38:36.294Z,101282.63
2023-02-20T11:41:39.556Z,101268.41
2023-02-20T11:44:41.174Z,101260.31
2023-02-20T11:47:44.172Z,101274.34
2023-02-20T11:50:52.878Z,101277.81
2023-02-20T11:54:17.780Z,101268.84
2023-02-20T11:57:25.599Z,101270.47
2023-02-20T12:00:43.297Z,101276.47
2023-02-20T12:03:55.967Z,101262.94
2023-02-20T12:06:57.553Z,101254.94
2023-02-20T12:10:23.161Z,101247.75
2023-02-20T12:13:24.835Z,101245.97
2023-02-20T12:16:41.602Z,101260.88
2023-02-20T12:19:52.075Z,101248.47
2023-02-20T12:23:31.336Z,101254.69
2023-02-20T12:26:54.575Z,101255.47
2023-02-20T12:30:41.112Z,101235.19
2023-02-20T12:33:51.323Z,101236.03
2023-02-20T12:37:19.505Z,101234.22
2023-02-20T12:40:42.792Z,101234.22
2023-02-20T12:44:13.363Z,101230.66
2023-02-20T12:47:30.330Z,101241.25
2023-02-20T12:50:40.845Z,101223.59
2023-02-20T12:54:03.914Z,101235.97
2023-02-20T12:57:29.734Z,101238.63
2023-02-20T13:00:37.301Z,101232.34
2023-02-20T13:03:49.912Z,101226.72
2023-02-20T13:07:04.580Z,101230.16
2023-02-20T13:10:26.187Z,101238.03
2023-02-20T13:13:55.399Z,101223.91
2023-02-20T13:16:59.692Z,101224.84
2023-02-20T13:20:15.408Z,101237.34
2023-02-20T13:23:16.913Z,101225.78
2023-02-20T13:26:33.809Z,101220.88
2023-02-20T13:29:39.966Z,101227.97
2023-02-20T13:32:45.607Z,101218.69
2023-02-20T13:35:53.031Z,101212.38
2023-02-20T13:39:21.104Z,101217.06
2023-02-20T13:42:28.489Z,101207.72
2023-02-20T13:45:38.556Z,101216.91
2023-02-20T13:48:48.467Z,101219.72
2023-02-20T13:51:50.092Z,101228.78
2023-02-20T13:54:52.346Z,101208.66
2023-02-20T13:57:57.173Z,101216.78
2023-02-20T14:00:59.719Z,101206.25
2023-02-20T14:04:05.807Z,101208.97
2023-02-20T14:07:07.338Z,101217.91
2023-02-20T14:10:16.683Z,101217.91
2023-02-20T14:13:30.845Z,101213.53
2023-02-20T14:16:40.068Z,101204.69
2023-02-20T14:19:44.995Z,101209.16
2023-02-20T14:22:46.662Z,101205.72
2023-02-20T14:26:06.353Z,101191.50
2023-02-20T14:29:20.130Z,101202.91
2023-02-20T14:32:21.765Z,101195.91
2023-02-20T14:36:09.704Z,101187.72
2023-02-20T14:39:11.243Z,101193.91
2023-02-20T14:42:24.257Z,101195.53
2023-02-20T14:45:27.333Z,101194.69
2023-02-20T14:48:34.887Z,101191.09
2023-02-20T14:51:37.133Z,101195.47
2023-02-20T14:54:40.475Z,101203.34
2023-02-20T14:57:42.057Z,101205.06
2023-02-20T15:00:45.720Z,101200.59
2023-02-20T15:04:01.701Z,101195.22
2023-02-20T15:07:07.048Z,101202.31
2023-02-20T15:10:28.583Z,101211.16
2023-02-20T15:13:36.530Z,101203.19
2023-02-20T15:16:40.342Z,101203.19
2023-02-20T15:19:42.812Z,101202.22
2023-02-20T15:22:44.679Z,101194.09
2023-02-20T15:25:46.379Z,101196.75
2023-02-20T15:28:47.938Z,101187.84
2023-02-20T15:31:57.397Z,101182.38
2023-02-20T15:34:59.630Z,101189.81
2023-02-20T15:38:04.799Z,101178.13
2023-02-20T15:41:06.786Z,101174.91
2023-02-20T15:44:08.333Z,101181.81
2023-02-20T15:47:10.013Z,101177.50
2023-02-20T15:50:11.606Z,101187.38
2023-02-20T15:53:20.436Z,101178.53
2023-02-20T15:56:22.221Z,101170.63
2023-02-20T15:59:23.804Z,101178.34
2023-02-20T16:02:25.548Z,101175.00
2023-02-20T16:05:27.847Z,101181.44
2023-02-20T16:08:29.973Z,101182.56
2023-02-20T16:11:39.091Z,101173.88
2023-02-20T16:14:40.643Z,101184.09
2023-02-20T16:17:42.229Z,101185.22
2023-02-20T16:20:43.955Z,101197.72
2023-02-20T16:23:48.239Z,101183.81
2023-02-20T16:26:50.001Z,101180.75
2023-02-20T16:29:53.017Z,101180.16
2023-02-20T16:32:54.765Z,101186.69
2023-02-20T16:35:58.580Z,101192.28
2023-02-20T16:39:00.167Z,101190.88
2023-02-20T16:42:11.026Z,101192.06
2023-02-20T16:45:15.525Z,101207.47
2023-02-20T16:48:21.389Z,101202.41
2023-02-20T16:51:24.393Z,101192.91
2023-02-20T16:54:26.025Z,101193.06
2023-02-20T16:57:27.576Z,101192.31
2023-02-20T17:00:31.921Z,101196.91
2023-02-20T17:03:33.445Z,101197.09
2023-02-20T17:06:35.001Z,101192.81
2023-02-20T17:09:44.405Z,101193.84
2023-02-20T17:12:48.049Z,101195.69
2023-02-20T17:15:49.644Z,101191.50
2023-02-20T17:18:51.215Z,101195.09
2023-02-20T17:21:53.123Z,101197.84
2023-02-20T17:24:56.186Z,101196.16
2023-02-20T17:27:57.979Z,101195.34
2023-02-20T17:31:01.032Z,101191.84
2023-02-20T17:34:02.856Z,101198.19
2023-02-20T17:37:05.641Z,101204.44
2023-02-20T17:40:07.848Z,101200.03
2023-02-20T17:43:10.339Z,101204.59
2023-02-20T17:46:12.455Z,101195.69
2023-02-20T17:49:16.154Z,101209.84
2023-02-20T17:52:17.963Z,101201.94
2023-02-20T17:55:22.327Z,101201.06
2023-02-20T17:58:23.928Z,101209.03
2023-02-20T18:01:27.607Z,101211.63
2023-02-20T18:04:29.158Z,101203.66
2023-02-20T18:07:30.715Z,101205.44
2023-02-20T18:10:32.241Z,101215.16
2023-02-20T18:13:33.814Z,101208.97
2023-02-20T18:16:35.479Z,101215.16
2023-02-20T18:19:37.277Z,101214.34
2023-02-20T18:22:38.798Z,101217.00
2023-02-20T18:25:41.325Z,101210.00
2023-02-20T18:28:43.362Z,101215.31
2023-02-20T18:31:45.202Z,101215.31
2023-02-20T18:34:46.739Z,101213.50
2023-02-20T18:37:48.286Z,101215.31
2023-02-20T18:40:49.908Z,101224.19
2023-02-20T18:43:51.625Z,101224.19
2023-02-20T18:46:53.227Z,101211.00
2023-02-20T18:49:54.778Z,101215.38
2023-02-20T18:52:56.318Z,101210.16
2023-02-20T18:55:58.208Z,101206.56
2023-02-20T18:59:00.782Z,101212.72
2023-02-20T19:02:05.903Z,101210.06
2023-02-20T19:05:07.798Z,101202.19
2023-02-20T19:08:09.322Z,101204.75
2023-02-20T19:11:10.956Z,101202.94
2023-02-20T19:14:12.516Z,101210.91
2023-02-20T19:17:14.119Z,101206.56
2023-02-20T19:20:24.885Z,101201.25
2023-02-20T19:23:27.262Z,101194.13
2023-02-20T19:26:28.795Z,101197.66
2023-02-20T19:29:30.480Z,101202.19
2023-02-20T19:32:32.132Z,101196.09
2023-02-20T19:35:33.754Z,101204.06
2023-02-20T19:38:35.466Z,101202.34
2023-02-20T19:41:38.152Z,101199.84
2023-02-20T19:44:39.898Z,101195.50
2023-02-20T19:47:41.447Z,101188.53
2023-02-20T19:50:43.047Z,101194.78
2023-02-20T19:53:44.747Z,101195.75
2023-02-20T19:56:51.694Z,101194.09
2023-02-20T19:59:53.239Z,101199.41
2023-02-20T20:02:57.571Z,101213.59
2023-02-20T20:05:59.123Z,101207.44
2023-02-20T20:09:12.540Z,101203.09
2023-02-20T20:12:33.858Z,101202.31
2023-02-20T20:15:36.983Z,101206.81
2023-02-20T20:18:38.572Z,101185.69
2023-02-20T20:21:40.173Z,101200.75
2023-02-20T20:24:41.773Z,101198.19
2023-02-20T20:27:43.674Z,101208.78
2023-02-20T20:30:45.394Z,101207.84
2023-02-20T20:33:46.951Z,101209.66
2023-02-20T20:36:48.559Z,101202.63
2023-02-20T20:39:51.730Z,101206.28
2023-02-20T20:42:53.728Z,101202.72
2023-02-20T20:45:55.407Z,101207.16
2023-02-20T20:48:57.195Z,101214.25
2023-02-20T20:51:58.744Z,101203.72
2023-02-20T20:55:04.386Z,101202.78
2023-02-20T20:58:05.957Z,101196.59
2023-02-20T21:01:07.660Z,101192.25
2023-02-20T21:04:10.402Z,101195.84
2023-02-20T21:07:12.768Z,101198.47
2023-02-20T21:10:14.429Z,101190.53
2023-02-20T21:13:15.941Z,101191.38
2023-02-20T21:16:18.691Z,101187.81
2023-02-20T21:19:20.306Z,101188.72
2023-02-20T21:22:22.319Z,101185.22
2023-02-20T21:25:27.078Z,101189.59
2023-02-20T21:28:28.636Z,101178.03
2023-02-20T21:31:30.529Z,101181.53
2023-02-20T21:34:32.167Z,101179.75
2023-02-20T21:37:33.691Z,101174.44
2023-02-20T21:40:35.257Z,101182.41
2023-02-20T21:43:55.682Z,101175.31
2023-02-20T21:47:02.776Z,101189.44
2023-02-20T21:50:06.091Z,101181.47
2023-02-20T21:53:07.667Z,101176.19
2023-02-20T21:56:09.244Z,101177.97
2023-02-20T21:59:10.788Z,101179.75
2023-02-20T22:02:17.906Z,101174.44
2023-02-20T22:05:19.589Z,101178.81
2023-02-20T22:08:39.872Z,101174.44
2023-02-20T22:11:59.696Z,101177.09
2023-02-20T22:15:20.070Z,101183.19
2023-02-20T22:18:40.141Z,101177.88
2023-02-20T22:22:00.253Z,101184.03
2023-02-20T22:25:20.412Z,101186.78
2023-02-20T22:28:40.458Z,101188.50
2023-02-20T22:32:00.699Z,101192.88
2023-02-20T22:35:20.807Z,101188.50
2023-02-20T22:38:40.777Z,101184.03
2023-02-20T22:42:00.800Z,101177.00
2023-02-20T22:45:21.104Z,101179.59
2023-02-20T22:48:40.874Z,101168.97
2023-02-20T22:52:06.259Z,101173.44
2023-02-20T22:55:26.034Z,101179.59
2023-02-20T22:58:45.851Z,101184.91
2023-02-20T23:02:05.825Z,101170.69
2023-02-20T23:05:26.543Z,101186.59
2023-02-20T23:08:46.363Z,101181.28
2023-02-20T23:12:06.371Z,101183.13
2023-02-20T23:15:26.893Z,101170.78
2023-02-20T23:18:48.263Z,101179.59
2023-02-20T23:22:08.806Z,101180.53
2023-02-20T23:25:28.866Z,101181.47
2023-02-20T23:28:49.864Z,101179.75
2023-02-20T23:32:09.778Z,101181.53
2023-02-20T23:35:30.443Z,101196.59
2023-02-20T23:38:50.853Z,101187.97
2023-02-20T23:42:10.850Z,101201.22
2023-02-20T23:45:30.976Z,101188.84
2023-02-20T23:48:51.109Z,101195.97
2023-02-20T23:52:16.398Z,101194.19
2023-02-20T23:55:36.720Z,101189.75
2023-02-20T23:58:56.859Z,101194.19
